sensor_id;sensor_type;location;lat;lon;timestamp;pressure;altitude;pressure_sealevel;temperature;humidity
73936;BME280;62287;50.858;0.252;2023-01-08T00:00:29;99767.05;;;14.43;42.32
73936;BME280;62287;50.858;0.252;2023-01-08T00:01:03;99759.95;;;13.58;42.35
73936;BME280;62287;50.858;0.252;2023-01-08T00:01:34;99763.97;;;13.68;42.38
73936;BME280;62287;50.858;0.252;2023-01-08T00:02:05;99762.77;;;13.65;42.09
73936;BME280;62287;50.858;0.252;2023-01-08T00:02:36;99763.94;;;14.45;41.95
73936;BME280;62287;50.858;0.252;2023-01-08T00:03:08;99762.53;;;14.79;41.94
73936;BME280;62287;50.858;0.252;2023-01-08T00:03:39;99761.09;;;14.47;41.88
73936;BME280;62287;50.858;0.252;2023-01-08T00:04:10;99764.60;;;14.44;41.98
73936;BME280;62287;50.858;0.252;2023-01-08T00:04:41;99762.06;;;14.36;41.90
73936;BME280;62287;50.858;0.252;2023-01-08T00:05:12;99757.85;;;14.43;41.99
73936;BME280;62287;50.858;0.252;2023-01-08T00:05:43;99763.89;;;14.51;41.90
73936;BME280;62287;50.858;0.252;2023-01-08T00:06:16;99762.97;;;14.66;42.03
73936;BME280;62287;50.858;0.252;2023-01-08T00:06:47;99764.04;;;14.29;42.05
73936;BME280;62287;50.858;0.252;2023-01-08T00:07:18;99765.67;;;14.02;42.07
73936;BME280;62287;50.858;0.252;2023-01-08T00:07:49;99761.62;;;14.18;42.20
73936;BME280;62287;50.858;0.252;2023-01-08T00:08:20;99772.22;;;14.19;42.22
73936;BME280;62287;50.858;0.252;2023-01-08T00:08:51;99768.50;;;14.42;42.08
73936;BME280;62287;50.858;0.252;2023-01-08T00:09:22;99769.33;;;14.26;42.17
73936;BME280;62287;50.858;0.252;2023-01-08T00:09:53;99767.80;;;14.27;42.10
73936;BME280;62287;50.858;0.252;2023-01-08T00:10:24;99770.73;;;14.32;42.07
73936;BME280;62287;50.858;0.252;2023-01-08T00:10:55;99769.52;;;14.29;42.07
73936;BME280;62287;50.858;0.252;2023-01-08T00:11:26;99765.71;;;13.88;42.04
73936;BME280;62287;50.858;0.252;2023-01-08T00:11:57;99767.95;;;14.03;41.98
73936;BME280;62287;50.858;0.252;2023-01-08T00:12:28;99769.33;;;13.98;42.11
73936;BME280;62287;50.858;0.252;2023-01-08T00:12:59;99770.89;;;14.60;42.29
73936;BME280;62287;50.858;0.252;2023-01-08T00:13:30;99773.05;;;14.20;42.25
73936;BME280;62287;50.858;0.252;2023-01-08T00:14:02;99775.60;;;14.30;42.24
73936;BME280;62287;50.858;0.252;2023-01-08T00:14:33;99769.09;;;14.27;42.12
73936;BME280;62287;50.858;0.252;2023-01-08T00:15:05;99773.22;;;13.98;42.14
73936;BME280;62287;50.858;0.252;2023-01-08T00:15:36;99773.24;;;14.27;42.21
73936;BME280;62287;50.858;0.252;2023-01-08T00:16:09;99772.94;;;14.36;42.13
73936;BME280;62287;50.858;0.252;2023-01-08T00:16:40;99777.17;;;14.21;42.25
73936;BME280;62287;50.858;0.252;2023-01-08T00:17:11;99778.52;;;14.41;42.34
73936;BME280;62287;50.858;0.252;2023-01-08T00:17:42;99778.78;;;14.22;42.31
73936;BME280;62287;50.858;0.252;2023-01-08T00:18:13;99780.74;;;14.35;42.25
73936;BME280;62287;50.858;0.252;2023-01-08T00:18:44;99783.14;;;14.32;42.30
73936;BME280;62287;50.858;0.252;2023-01-08T00:19:16;99786.00;;;14.26;42.25
73936;BME280;62287;50.858;0.252;2023-01-08T00:19:47;99782.02;;;14.28;42.23
73936;BME280;62287;50.858;0.252;2023-01-08T00:20:18;99782.49;;;14.28;42.23
73936;BME280;62287;50.858;0.252;2023-01-08T00:20:49;99779.43;;;14.62;42.20
73936;BME280;62287;50.858;0.252;2023-01-08T00:21:20;99780.95;;;14.68;42.24
73936;BME280;62287;50.858;0.252;2023-01-08T00:21:51;99781.18;;;14.29;42.29
73936;BME280;62287;50.858;0.252;2023-01-08T00:22:22;99781.00;;;13.95;42.25
73936;BME280;62287;50.858;0.252;2023-01-08T00:22:53;99783.10;;;13.86;42.27
73936;BME280;62287;50.858;0.252;2023-01-08T00:23:24;99785.75;;;14.55;42.31
73936;BME280;62287;50.858;0.252;2023-01-08T00:23:55;99781.92;;;14.21;42.29
73936;BME280;62287;50.858;0.252;2023-01-08T00:24:26;99782.19;;;14.53;42.31
73936;BME280;62287;50.858;0.252;2023-01-08T00:24:57;99780.93;;;14.08;42.43
73936;BME280;62287;50.858;0.252;2023-01-08T00:25:28;99779.85;;;14.17;42.35
73936;BME280;62287;50.858;0.252;2023-01-08T00:26:00;99781.80;;;13.84;42.35
73936;BME280;62287;50.858;0.252;2023-01-08T00:26:31;99779.33;;;14.17;42.36
73936;BME280;62287;50.858;0.252;2023-01-08T00:27:02;99782.67;;;14.59;42.42
73936;BME280;62287;50.858;0.252;2023-01-08T00:27:34;99775.34;;;14.19;42.46
73936;BME280;62287;50.858;0.252;2023-01-08T00:28:05;99781.45;;;14.02;42.51
73936;BME280;62287;50.858;0.252;2023-01-08T00:28:37;99779.48;;;14.06;42.51
73936;BME280;62287;50.858;0.252;2023-01-08T00:29:08;99781.00;;;14.48;42.55
73936;BME280;62287;50.858;0.252;2023-01-08T00:29:39;99777.60;;;14.14;42.60
73936;BME280;62287;50.858;0.252;2023-01-08T00:30:11;99780.85;;;14.11;42.55
73936;BME280;62287;50.858;0.252;2023-01-08T00:30:43;99782.47;;;14.17;42.54
73936;BME280;62287;50.858;0.252;2023-01-08T00:31:14;99779.42;;;14.42;42.41
73936;BME280;62287;50.858;0.252;2023-01-08T00:31:44;99775.35;;;14.11;42.63
73936;BME280;62287;50.858;0.252;2023-01-08T00:32:15;99782.23;;;14.61;42.63
73936;BME280;62287;50.858;0.252;2023-01-08T00:32:46;99781.81;;;14.22;42.71
73936;BME280;62287;50.858;0.252;2023-01-08T00:33:18;99780.28;;;14.66;42.65
73936;BME280;62287;50.858;0.252;2023-01-08T00:33:48;99784.29;;;14.67;42.69
73936;BME280;62287;50.858;0.252;2023-01-08T00:34:19;99775.24;;;14.25;42.67
73936;BME280;62287;50.858;0.252;2023-01-08T00:34:50;99780.21;;;14.32;42.65
73936;BME280;62287;50.858;0.252;2023-01-08T00:35:21;99779.28;;;14.25;42.75
73936;BME280;62287;50.858;0.252;2023-01-08T00:35:52;99775.70;;;14.50;42.74
73936;BME280;62287;50.858;0.252;2023-01-08T00:36:23;99779.03;;;14.26;42.72
73936;BME280;62287;50.858;0.252;2023-01-08T00:36:54;99780.00;;;14.64;42.70
73936;BME280;62287;50.858;0.252;2023-01-08T00:37:26;99781.39;;;14.48;42.81
73936;BME280;62287;50.858;0.252;2023-01-08T00:37:57;99780.70;;;14.48;42.82
73936;BME280;62287;50.858;0.252;2023-01-08T00:38:28;99779.56;;;14.13;42.81
73936;BME280;62287;50.858;0.252;2023-01-08T00:38:59;99779.55;;;14.20;42.78
73936;BME280;62287;50.858;0.252;2023-01-08T00:39:30;99770.53;;;14.06;42.64
73936;BME280;62287;50.858;0.252;2023-01-08T00:40:01;99781.12;;;14.36;42.66
73936;BME280;62287;50.858;0.252;2023-01-08T00:40:33;99776.34;;;14.52;42.79
73936;BME280;62287;50.858;0.252;2023-01-08T00:41:05;99773.42;;;14.64;42.75
73936;BME280;62287;50.858;0.252;2023-01-08T00:41:36;99770.79;;;14.33;42.73
73936;BME280;62287;50.858;0.252;2023-01-08T00:42:07;99769.62;;;14.31;42.64
73936;BME280;62287;50.858;0.252;2023-01-08T00:42:38;99768.31;;;14.62;42.84
73936;BME280;62287;50.858;0.252;2023-01-08T00:43:09;99769.06;;;14.49;42.92
73936;BME280;62287;50.858;0.252;2023-01-08T00:43:40;99763.71;;;14.69;42.83
73936;BME280;62287;50.858;0.252;2023-01-08T00:44:11;99759.67;;;14.51;42.89
73936;BME280;62287;50.858;0.252;2023-01-08T00:44:42;99769.26;;;14.15;42.92
73936;BME280;62287;50.858;0.252;2023-01-08T00:45:13;99765.85;;;14.14;42.70
73936;BME280;62287;50.858;0.252;2023-01-08T00:45:44;99762.51;;;14.34;42.64
73936;BME280;62287;50.858;0.252;2023-01-08T00:46:15;99762.45;;;14.43;42.69
73936;BME280;62287;50.858;0.252;2023-01-08T00:46:46;99762.37;;;14.61;42.76
73936;BME280;62287;50.858;0.252;2023-01-08T00:47:17;99759.36;;;14.01;42.62
73936;BME280;62287;50.858;0.252;2023-01-08T00:47:48;99756.45;;;14.49;42.48
73936;BME280;62287;50.858;0.252;2023-01-08T00:48:19;99754.70;;;14.81;42.48
73936;BME280;62287;50.858;0.252;2023-01-08T00:48:50;99753.55;;;14.16;42.38
73936;BME280;62287;50.858;0.252;2023-01-08T00:49:21;99752.54;;;14.51;42.36
73936;BME280;62287;50.858;0.252;2023-01-08T00:49:52;99751.05;;;14.39;42.44
73936;BME280;62287;50.858;0.252;2023-01-08T00:50:23;99761.79;;;14.56;42.33
73936;BME280;62287;50.858;0.252;2023-01-08T00:50:54;99753.79;;;14.38;42.51
73936;BME280;62287;50.858;0.252;2023-01-08T00:51:25;99748.91;;;14.25;42.54
73936;BME280;62287;50.858;0.252;2023-01-08T00:51:56;99751.38;;;14.67;42.55
73936;BME280;62287;50.858;0.252;2023-01-08T00:52:27;99749.15;;;14.69;42.54
73936;BME280;62287;50.858;0.252;2023-01-08T00:52:58;99748.24;;;14.70;42.48
73936;BME280;62287;50.858;0.252;2023-01-08T00:53:29;99749.80;;;14.61;42.51
73936;BME280;62287;50.858;0.252;2023-01-08T00:54:00;99747.03;;;14.56;42.54
73936;BME280;62287;50.858;0.252;2023-01-08T00:54:31;99747.14;;;14.61;42.56
73936;BME280;62287;50.858;0.252;2023-01-08T00:55:02;99747.13;;;14.09;42.64
73936;BME280;62287;50.858;0.252;2023-01-08T00:55:33;99746.01;;;14.22;42.62
73936;BME280;62287;50.858;0.252;2023-01-08T00:56:06;99744.80;;;14.05;42.66
73936;BME280;62287;50.858;0.252;2023-01-08T00:56:37;99745.15;;;14.46;42.66
73936;BME280;62287;50.858;0.252;2023-01-08T00:57:08;99739.53;;;14.48;42.73
73936;BME280;62287;50.858;0.252;2023-01-08T00:57:39;99739.19;;;14.42;42.77
73936;BME280;62287;50.858;0.252;2023-01-08T00:58:10;99740.98;;;14.42;42.89
73936;BME280;62287;50.858;0.252;2023-01-08T00:58:41;99741.18;;;14.05;42.84
73936;BME280;62287;50.858;0.252;2023-01-08T00:59:12;99738.07;;;14.48;42.85
73936;BME280;62287;50.858;0.252;2023-01-08T00:59:43;99735.64;;;14.46;42.85
73936;BME280;62287;50.858;0.252;2023-01-08T01:00:15;99738.36;;;14.06;42.86
73936;BME280;62287;50.858;0.252;2023-01-08T01:00:46;99734.34;;;14.39;42.90
73936;BME280;62287;50.858;0.252;2023-01-08T01:01:17;99735.06;;;14.38;42.93
73936;BME280;62287;50.858;0.252;2023-01-08T01:01:48;99732.00;;;14.46;42.90
73936;BME280;62287;50.858;0.252;2023-01-08T01:02:19;99735.31;;;13.93;42.93
73936;BME280;62287;50.858;0.252;2023-01-08T01:02:50;99733.19;;;14.28;42.91
73936;BME280;62287;50.858;0.252;2023-01-08T01:03:21;99728.96;;;14.24;42.98
73936;BME280;62287;50.858;0.252;2023-01-08T01:03:52;99732.06;;;14.31;42.96
73936;BME280;62287;50.858;0.252;2023-01-08T01:04:24;99733.13;;;13.93;43.00
73936;BME280;62287;50.858;0.252;2023-01-08T01:04:56;99727.34;;;14.06;43.00
73936;BME280;62287;50.858;0.252;2023-01-08T01:05:27;99726.50;;;14.25;43.08
73936;BME280;62287;50.858;0.252;2023-01-08T01:06:01;99736.84;;;13.99;43.08
73936;BME280;62287;50.858;0.252;2023-01-08T01:06:33;99723.82;;;14.36;43.00
73936;BME280;62287;50.858;0.252;2023-01-08T01:07:04;99732.09;;;14.51;42.99
73936;BME280;62287;50.858;0.252;2023-01-08T01:07:35;99732.07;;;14.41;43.06
73936;BME280;62287;50.858;0.252;2023-01-08T01:08:06;99728.38;;;13.96;43.08
73936;BME280;62287;50.858;0.252;2023-01-08T01:08:37;99727.99;;;14.33;43.02
73936;BME280;62287;50.858;0.252;2023-01-08T01:09:08;99728.61;;;14.35;43.08
73936;BME280;62287;50.858;0.252;2023-01-08T01:09:39;99726.96;;;13.91;43.09
73936;BME280;62287;50.858;0.252;2023-01-08T01:10:12;99719.39;;;14.21;43.10
73936;BME280;62287;50.858;0.252;2023-01-08T01:10:43;99718.26;;;14.01;43.03
73936;BME280;62287;50.858;0.252;2023-01-08T01:11:18;99719.99;;;13.97;43.04
73936;BME280;62287;50.858;0.252;2023-01-08T01:11:50;99717.06;;;14.43;42.91
73936;BME280;62287;50.858;0.252;2023-01-08T01:12:21;99718.02;;;14.06;43.06
73936;BME280;62287;50.858;0.252;2023-01-08T01:12:52;99718.66;;;13.90;42.98
73936;BME280;62287;50.858;0.252;2023-01-08T01:13:23;99718.87;;;13.85;42.99
73936;BME280;62287;50.858;0.252;2023-01-08T01:13:55;99719.93;;;13.95;42.92
73936;BME280;62287;50.858;0.252;2023-01-08T01:14:26;99721.80;;;14.00;42.96
73936;BME280;62287;50.858;0.252;2023-01-08T01:14:57;99721.77;;;13.90;42.96
73936;BME280;62287;50.858;0.252;2023-01-08T01:15:28;99720.32;;;13.96;42.89
73936;BME280;62287;50.858;0.252;2023-01-08T01:16:00;99717.76;;;14.39;42.87
73936;BME280;62287;50.858;0.252;2023-01-08T01:16:32;99721.38;;;13.64;42.89
73936;BME280;62287;50.858;0.252;2023-01-08T01:17:03;99722.06;;;13.47;42.89
73936;BME280;62287;50.858;0.252;2023-01-08T01:17:34;99720.50;;;13.93;42.87
73936;BME280;62287;50.858;0.252;2023-01-08T01:18:05;99730.56;;;13.92;42.98
73936;BME280;62287;50.858;0.252;2023-01-08T01:18:36;99724.49;;;13.88;42.93
73936;BME280;62287;50.858;0.252;2023-01-08T01:19:07;99715.11;;;13.91;42.80
73936;BME280;62287;50.858;0.252;2023-01-08T01:19:39;99722.92;;;14.09;42.72
73936;BME280;62287;50.858;0.252;2023-01-08T01:20:14;99719.74;;;14.56;42.58
73936;BME280;62287;50.858;0.252;2023-01-08T01:20:45;99719.27;;;14.17;42.63
73936;BME280;62287;50.858;0.252;2023-01-08T01:21:21;99721.24;;;14.21;42.63
73936;BME280;62287;50.858;0.252;2023-01-08T01:21:58;99719.64;;;13.95;42.77
73936;BME280;62287;50.858;0.252;2023-01-08T01:22:29;99721.31;;;13.86;42.89
73936;BME280;62287;50.858;0.252;2023-01-08T01:22:59;99719.47;;;14.48;42.70
73936;BME280;62287;50.858;0.252;2023-01-08T01:23:30;99719.30;;;13.58;42.77
73936;BME280;62287;50.858;0.252;2023-01-08T01:24:03;99716.04;;;14.24;42.97
73936;BME280;62287;50.858;0.252;2023-01-08T01:24:35;99713.37;;;14.00;42.94
73936;BME280;62287;50.858;0.252;2023-01-08T01:25:06;99711.95;;;13.91;42.90
73936;BME280;62287;50.858;0.252;2023-01-08T01:25:38;99714.41;;;13.97;42.90
73936;BME280;62287;50.858;0.252;2023-01-08T01:26:14;99715.58;;;14.22;42.94
73936;BME280;62287;50.858;0.252;2023-01-08T01:26:45;99711.93;;;13.56;42.89
73936;BME280;62287;50.858;0.252;2023-01-08T01:27:17;99714.74;;;14.17;42.69
73936;BME280;62287;50.858;0.252;2023-01-08T01:27:48;99715.96;;;13.82;42.63
73936;BME280;62287;50.858;0.252;2023-01-08T01:28:19;99713.60;;;14.56;42.59
73936;BME280;62287;50.858;0.252;2023-01-08T01:28:52;99719.17;;;14.09;42.56
73936;BME280;62287;50.858;0.252;2023-01-08T01:29:24;99709.67;;;14.02;42.60
73936;BME280;62287;50.858;0.252;2023-01-08T01:29:55;99711.99;;;13.98;42.63
73936;BME280;62287;50.858;0.252;2023-01-08T01:30:26;99712.92;;;14.01;42.63
73936;BME280;62287;50.858;0.252;2023-01-08T01:30:57;99707.32;;;14.08;42.63
73936;BME280;62287;50.858;0.252;2023-01-08T01:31:31;99711.29;;;14.38;42.60
73936;BME280;62287;50.858;0.252;2023-01-08T01:32:02;99703.44;;;13.98;42.60
73936;BME280;62287;50.858;0.252;2023-01-08T01:32:33;99705.83;;;14.00;42.66
73936;BME280;62287;50.858;0.252;2023-01-08T01:33:04;99702.07;;;14.27;42.69
73936;BME280;62287;50.858;0.252;2023-01-08T01:33:35;99706.56;;;14.39;42.72
73936;BME280;62287;50.858;0.252;2023-01-08T01:34:06;99708.75;;;14.43;42.68
73936;BME280;62287;50.858;0.252;2023-01-08T01:34:38;99708.87;;;14.12;42.61
73936;BME280;62287;50.858;0.252;2023-01-08T01:35:09;99709.99;;;13.98;42.65
73936;BME280;62287;50.858;0.252;2023-01-08T01:35:47;99709.38;;;14.44;42.65
73936;BME280;62287;50.858;0.252;2023-01-08T01:36:20;99709.18;;;14.41;42.68
73936;BME280;62287;50.858;0.252;2023-01-08T01:36:52;99718.68;;;14.38;42.63
73936;BME280;62287;50.858;0.252;2023-01-08T01:37:23;99712.15;;;14.41;42.61
73936;BME280;62287;50.858;0.252;2023-01-08T01:37:54;99712.96;;;13.98;42.65
73936;BME280;62287;50.858;0.252;2023-01-08T01:38:25;99717.00;;;14.37;42.61
73936;BME280;62287;50.858;0.252;2023-01-08T01:38:57;99708.51;;;14.33;42.67
73936;BME280;62287;50.858;0.252;2023-01-08T01:39:28;99715.12;;;14.31;42.71
73936;BME280;62287;50.858;0.252;2023-01-08T01:39:59;99713.01;;;14.40;42.73
73936;BME280;62287;50.858;0.252;2023-01-08T01:40:30;99720.35;;;13.95;42.77
73936;BME280;62287;50.858;0.252;2023-01-08T01:41:01;99712.47;;;14.39;42.77
73936;BME280;62287;50.858;0.252;2023-01-08T01:41:36;99712.13;;;13.99;42.79
73936;BME280;62287;50.858;0.252;2023-01-08T01:42:11;99717.06;;;13.98;42.80
73936;BME280;62287;50.858;0.252;2023-01-08T01:42:42;99718.40;;;14.25;42.91
73936;BME280;62287;50.858;0.252;2023-01-08T01:43:13;99719.04;;;13.93;42.76
73936;BME280;62287;50.858;0.252;2023-01-08T01:43:44;99716.60;;;14.28;42.77
73936;BME280;62287;50.858;0.252;2023-01-08T01:44:47;99717.01;;;13.87;42.80
73936;BME280;62287;50.858;0.252;2023-01-08T01:45:20;99714.49;;;14.35;42.69
73936;BME280;62287;50.858;0.252;2023-01-08T01:45:52;99717.90;;;14.14;42.84
73936;BME280;62287;50.858;0.252;2023-01-08T01:46:33;99718.69;;;13.87;42.84
73936;BME280;62287;50.858;0.252;2023-01-08T01:47:11;99715.95;;;13.72;42.69
73936;BME280;62287;50.858;0.252;2023-01-08T01:47:45;99717.09;;;14.31;42.69
73936;BME280;62287;50.858;0.252;2023-01-08T01:48:17;99715.94;;;14.28;42.80
73936;BME280;62287;50.858;0.252;2023-01-08T01:48:50;99713.72;;;14.33;42.76
73936;BME280;62287;50.858;0.252;2023-01-08T01:49:23;99713.03;;;13.88;42.89
73936;BME280;62287;50.858;0.252;2023-01-08T01:49:58;99719.72;;;13.70;42.97
73936;BME280;62287;50.858;0.252;2023-01-08T01:50:38;99717.79;;;14.18;42.95
73936;BME280;62287;50.858;0.252;2023-01-08T01:51:11;99715.16;;;13.84;42.96
73936;BME280;62287;50.858;0.252;2023-01-08T01:51:46;99716.55;;;14.19;42.94
73936;BME280;62287;50.858;0.252;2023-01-08T01:52:20;99722.98;;;13.92;42.84
73936;BME280;62287;50.858;0.252;2023-01-08T01:52:56;99721.23;;;13.85;42.93
73936;BME280;62287;50.858;0.252;2023-01-08T01:53:31;99719.52;;;14.01;42.95
73936;BME280;62287;50.858;0.252;2023-01-08T01:54:07;99723.21;;;13.63;42.75
73936;BME280;62287;50.858;0.252;2023-01-08T01:54:39;99723.75;;;13.99;42.75
73936;BME280;62287;50.858;0.252;2023-01-08T01:55:12;99720.55;;;14.13;42.69
73936;BME280;62287;50.858;0.252;2023-01-08T01:55:44;99723.43;;;14.47;42.66
73936;BME280;62287;50.858;0.252;2023-01-08T01:56:15;99722.35;;;14.52;42.61
73936;BME280;62287;50.858;0.252;2023-01-08T01:56:46;99717.21;;;13.98;42.65
73936;BME280;62287;50.858;0.252;2023-01-08T01:57:18;99720.94;;;14.38;42.46
73936;BME280;62287;50.858;0.252;2023-01-08T01:57:52;99721.88;;;13.98;42.66
73936;BME280;62287;50.858;0.252;2023-01-08T01:58:26;99720.76;;;14.00;42.76
73936;BME280;62287;50.858;0.252;2023-01-08T01:58:58;99724.29;;;14.61;42.59
73936;BME280;62287;50.858;0.252;2023-01-08T01:59:29;99725.65;;;14.14;42.56
73936;BME280;62287;50.858;0.252;2023-01-08T02:00:03;99726.34;;;14.12;42.61
73936;BME280;62287;50.858;0.252;2023-01-08T02:00:34;99728.21;;;14.53;42.48
73936;BME280;62287;50.858;0.252;2023-01-08T02:01:07;99726.10;;;14.01;42.52
73936;BME280;62287;50.858;0.252;2023-01-08T02:01:40;99724.98;;;14.31;42.55
73936;BME280;62287;50.858;0.252;2023-01-08T02:02:12;99722.62;;;14.21;42.64
73936;BME280;62287;50.858;0.252;2023-01-08T02:02:43;99726.05;;;13.90;42.59
73936;BME280;62287;50.858;0.252;2023-01-08T02:03:15;99723.12;;;14.38;42.51
73936;BME280;62287;50.858;0.252;2023-01-08T02:03:46;99731.92;;;13.91;42.51
73936;BME280;62287;50.858;0.252;2023-01-08T02:04:17;99724.36;;;13.93;42.42
73936;BME280;62287;50.858;0.252;2023-01-08T02:04:49;99723.71;;;13.97;42.49
73936;BME280;62287;50.858;0.252;2023-01-08T02:05:21;99725.86;;;14.35;42.35
73936;BME280;62287;50.858;0.252;2023-01-08T02:05:59;99723.77;;;14.25;42.59
73936;BME280;62287;50.858;0.252;2023-01-08T02:06:36;99724.66;;;14.01;42.59
73936;BME280;62287;50.858;0.252;2023-01-08T02:07:12;99724.55;;;14.32;42.65
73936;BME280;62287;50.858;0.252;2023-01-08T02:07:49;99720.87;;;14.30;42.70
73936;BME280;62287;50.858;0.252;2023-01-08T02:08:30;99723.35;;;14.27;42.72
73936;BME280;62287;50.858;0.252;2023-01-08T02:09:12;99725.00;;;14.16;42.80
73936;BME280;62287;50.858;0.252;2023-01-08T02:09:48;99718.90;;;13.81;42.83
73936;BME280;62287;50.858;0.252;2023-01-08T02:10:26;99723.19;;;14.00;42.95
73936;BME280;62287;50.858;0.252;2023-01-08T02:11:06;99725.96;;;13.73;42.86
73936;BME280;62287;50.858;0.252;2023-01-08T02:11:46;99718.23;;;13.79;42.86
73936;BME280;62287;50.858;0.252;2023-01-08T02:12:22;99716.53;;;14.17;42.76
73936;BME280;62287;50.858;0.252;2023-01-08T02:13:00;99716.23;;;13.80;42.73
73936;BME280;62287;50.858;0.252;2023-01-08T02:13:37;99714.47;;;13.91;42.70
73936;BME280;62287;50.858;0.252;2023-01-08T02:14:14;99714.81;;;13.77;42.75
73936;BME280;62287;50.858;0.252;2023-01-08T02:14:53;99716.40;;;14.06;42.82
73936;BME280;62287;50.858;0.252;2023-01-08T02:15:31;99717.38;;;14.13;42.73
73936;BME280;62287;50.858;0.252;2023-01-08T02:16:10;99721.68;;;13.87;42.72
73936;BME280;62287;50.858;0.252;2023-01-08T02:16:54;99718.06;;;14.23;42.70
73936;BME280;62287;50.858;0.252;2023-01-08T02:17:33;99718.03;;;14.19;42.64
73936;BME280;62287;50.858;0.252;2023-01-08T02:18:08;99717.23;;;14.31;42.59
73936;BME280;62287;50.858;0.252;2023-01-08T02:18:46;99717.28;;;13.85;42.58
73936;BME280;62287;50.858;0.252;2023-01-08T02:19:29;99717.65;;;14.25;42.55
73936;BME280;62287;50.858;0.252;2023-01-08T02:20:07;99716.37;;;14.31;42.62
73936;BME280;62287;50.858;0.252;2023-01-08T02:20:42;99716.62;;;13.84;42.69
73936;BME280;62287;50.858;0.252;2023-01-08T02:21:19;99714.52;;;14.39;42.56
73936;BME280;62287;50.858;0.252;2023-01-08T02:22:00;99716.85;;;14.00;42.52
73936;BME280;62287;50.858;0.252;2023-01-08T02:22:50;99718.91;;;13.88;42.53
73936;BME280;62287;50.858;0.252;2023-01-08T02:23:27;99711.37;;;13.88;42.54
73936;BME280;62287;50.858;0.252;2023-01-08T02:24:03;99716.74;;;13.94;42.44
73936;BME280;62287;50.858;0.252;2023-01-08T02:24:47;99716.11;;;14.06;42.34
73936;BME280;62287;50.858;0.252;2023-01-08T02:25:31;99715.43;;;14.33;42.42
73936;BME280;62287;50.858;0.252;2023-01-08T02:26:14;99711.47;;;14.45;42.33
73936;BME280;62287;50.858;0.252;2023-01-08T02:26:47;99709.67;;;13.89;42.39
73936;BME280;62287;50.858;0.252;2023-01-08T02:27:19;99709.56;;;13.97;42.42
73936;BME280;62287;50.858;0.252;2023-01-08T02:27:53;99707.39;;;14.36;42.41
73936;BME280;62287;50.858;0.252;2023-01-08T02:28:25;99711.87;;;13.96;42.41
73936;BME280;62287;50.858;0.252;2023-01-08T02:28:59;99708.34;;;13.94;42.42
73936;BME280;62287;50.858;0.252;2023-01-08T02:29:32;99714.99;;;14.20;42.45
73936;BME280;62287;50.858;0.252;2023-01-08T02:30:05;99716.52;;;13.92;42.44
73936;BME280;62287;50.858;0.252;2023-01-08T02:30:36;99716.89;;;14.29;42.39
73936;BME280;62287;50.858;0.252;2023-01-08T02:31:07;99718.83;;;13.96;42.39
73936;BME280;62287;50.858;0.252;2023-01-08T02:31:40;99716.52;;;14.26;42.48
73936;BME280;62287;50.858;0.252;2023-01-08T02:32:12;99718.31;;;13.82;42.46
73936;BME280;62287;50.858;0.252;2023-01-08T02:32:43;99715.30;;;14.01;42.49
73936;BME280;62287;50.858;0.252;2023-01-08T02:33:15;99713.91;;;14.17;42.39
73936;BME280;62287;50.858;0.252;2023-01-08T02:33:46;99715.79;;;13.78;42.44
73936;BME280;62287;50.858;0.252;2023-01-08T02:34:17;99715.49;;;14.29;42.35
73936;BME280;62287;50.858;0.252;2023-01-08T02:34:48;99712.54;;;13.92;42.44
73936;BME280;62287;50.858;0.252;2023-01-08T02:35:19;99710.77;;;13.92;42.37
73936;BME280;62287;50.858;0.252;2023-01-08T02:35:54;99713.43;;;13.95;42.39
73936;BME280;62287;50.858;0.252;2023-01-08T02:36:41;99709.56;;;14.34;42.49
73936;BME280;62287;50.858;0.252;2023-01-08T02:37:13;99710.95;;;14.20;42.63
73936;BME280;62287;50.858;0.252;2023-01-08T02:37:44;99711.68;;;13.91;42.52
73936;BME280;62287;50.858;0.252;2023-01-08T02:38:17;99711.79;;;14.10;42.53
73936;BME280;62287;50.858;0.252;2023-01-08T02:38:56;99707.23;;;14.16;42.51
73936;BME280;62287;50.858;0.252;2023-01-08T02:39:42;99710.79;;;14.16;42.60
73936;BME280;62287;50.858;0.252;2023-01-08T02:40:22;99714.26;;;14.19;42.53
73936;BME280;62287;50.858;0.252;2023-01-08T02:41:00;99708.78;;;14.16;42.53
73936;BME280;62287;50.858;0.252;2023-01-08T02:41:40;99710.93;;;13.84;42.48
73936;BME280;62287;50.858;0.252;2023-01-08T02:42:23;99705.65;;;14.23;42.43
73936;BME280;62287;50.858;0.252;2023-01-08T02:43:00;99706.08;;;13.84;42.45
73936;BME280;62287;50.858;0.252;2023-01-08T02:43:37;99701.66;;;13.76;42.48
73936;BME280;62287;50.858;0.252;2023-01-08T02:44:12;99699.70;;;14.22;42.46
73936;BME280;62287;50.858;0.252;2023-01-08T02:44:54;99706.42;;;13.77;42.54
73936;BME280;62287;50.858;0.252;2023-01-08T02:45:34;99705.92;;;13.91;42.45
73936;BME280;62287;50.858;0.252;2023-01-08T02:46:12;99705.55;;;13.79;42.49
73936;BME280;62287;50.858;0.252;2023-01-08T02:46:44;99708.87;;;13.79;42.42
73936;BME280;62287;50.858;0.252;2023-01-08T02:47:22;99705.91;;;13.86;42.30
73936;BME280;62287;50.858;0.252;2023-01-08T02:47:58;99701.38;;;13.77;42.38
73936;BME280;62287;50.858;0.252;2023-01-08T02:48:36;99704.14;;;14.18;42.37
73936;BME280;62287;50.858;0.252;2023-01-08T02:49:10;99710.97;;;14.03;42.49
73936;BME280;62287;50.858;0.252;2023-01-08T02:49:45;99708.53;;;14.20;42.42
73936;BME280;62287;50.858;0.252;2023-01-08T02:50:21;99708.77;;;13.68;42.51
73936;BME280;62287;50.858;0.252;2023-01-08T02:50:58;99705.30;;;14.19;42.37
73936;BME280;62287;50.858;0.252;2023-01-08T02:51:34;99702.65;;;14.10;42.48
73936;BME280;62287;50.858;0.252;2023-01-08T02:52:09;99709.62;;;13.65;42.70
73936;BME280;62287;50.858;0.252;2023-01-08T02:52:49;99706.55;;;14.12;42.51
73936;BME280;62287;50.858;0.252;2023-01-08T02:53:25;99704.05;;;14.24;42.39
73936;BME280;62287;50.858;0.252;2023-01-08T02:53:59;99702.95;;;14.20;42.41
73936;BME280;62287;50.858;0.252;2023-01-08T02:54:34;99703.77;;;14.15;42.34
73936;BME280;62287;50.858;0.252;2023-01-08T02:55:07;99708.14;;;13.83;42.39
73936;BME280;62287;50.858;0.252;2023-01-08T02:55:41;99701.22;;;14.05;42.40